createdAt,value
2022-12-05T00:01:32.464Z,28.38
2022-12-05T00:04:01.840Z,32.08
2022-12-05T00:06:31.089Z,28.70
2022-12-05T00:08:58.686Z,27.15
2022-12-05T00:11:31.463Z,30.65
2022-12-05T00:14:00.145Z,30.38
2022-12-05T00:16:29.779Z,29.58
2022-12-05T00:19:00.338Z,27.35
2022-12-05T00:21:30.453Z,26.90
2022-12-05T00:23:59.632Z,39.88
2022-12-05T00:26:27.783Z,35.10
2022-12-05T00:28:56.561Z,31.48
2022-12-05T00:31:25.474Z,37.83
2022-12-05T00:33:53.658Z,26.63
2022-12-05T00:36:26.573Z,30.20
2022-12-05T00:38:55.166Z,27.95
2022-12-05T00:41:25.815Z,31.40
2022-12-05T00:43:54.069Z,34.35
2022-12-05T00:46:23.772Z,27.08
2022-12-05T00:48:53.727Z,32.78
2022-12-05T00:51:29.867Z,30.48
2022-12-05T00:54:02.896Z,36.40
2022-12-05T00:56:31.667Z,36.83
2022-12-05T00:59:00.434Z,30.63
2022-12-05T01:01:35.558Z,29.08
2022-12-05T01:04:10.563Z,28.92
2022-12-05T01:06:38.634Z,27.50
2022-12-05T01:09:06.624Z,26.73
2022-12-05T01:11:40.788Z,26.70
2022-12-05T01:14:10.157Z,40.72
2022-12-05T01:16:39.416Z,35.63
2022-12-05T01:19:19.542Z,31.92
2022-12-05T01:21:47.913Z,27.52
2022-12-05T01:24:15.860Z,26.00
2022-12-05T01:26:44.106Z,27.05
2022-12-05T01:29:14.260Z,21.13
2022-12-05T01:31:42.304Z,29.98
2022-12-05T01:34:13.059Z,38.78
2022-12-05T01:36:40.725Z,25.85
2022-12-05T01:39:10.167Z,28.98
2022-12-05T01:41:40.960Z,36.05
2022-12-05T01:44:28.295Z,27.13
2022-12-05T01:46:56.692Z,25.40
2022-12-05T01:49:39.925Z,27.58
2022-12-05T01:52:27.792Z,42.83
2022-12-05T01:55:00.167Z,29.08
2022-12-05T01:57:27.671Z,26.63
2022-12-05T02:00:00.512Z,29.00
2022-12-05T02:02:31.265Z,36.25
2022-12-05T02:05:07.200Z,32.13
2022-12-05T02:07:37.110Z,21.02
2022-12-05T02:10:04.886Z,33.17
2022-12-05T02:12:32.931Z,23.75
2022-12-05T02:15:26.259Z,35.97
2022-12-05T02:18:20.676Z,31.77
2022-12-05T02:21:16.706Z,28.15
2022-12-05T02:24:12.412Z,24.38
2022-12-05T02:27:05.564Z,24.55
2022-12-05T02:29:41.566Z,38.08
2022-12-05T02:32:26.516Z,29.38
2022-12-05T02:34:56.398Z,31.58
2022-12-05T02:37:29.897Z,23.27
2022-12-05T02:40:05.575Z,36.67
2022-12-05T02:42:43.155Z,26.35
2022-12-05T02:45:15.229Z,27.33
2022-12-05T02:47:52.118Z,34.03
2022-12-05T02:50:23.551Z,28.55
2022-12-05T02:52:54.078Z,32.47
2022-12-05T02:55:23.611Z,26.67
2022-12-05T02:57:57.096Z,23.05
2022-12-05T03:00:24.759Z,23.73
2022-12-05T03:02:56.055Z,31.85
2022-12-05T03:05:43.499Z,28.60
2022-12-05T03:08:16.918Z,27.60
2022-12-05T03:10:46.083Z,27.08
2022-12-05T03:13:20.619Z,26.52
2022-12-05T03:18:29.440Z,34.83
2022-12-05T03:21:04.624Z,20.92
2022-12-05T03:23:36.859Z,22.27
2022-12-05T03:26:23.344Z,22.58
2022-12-05T03:28:53.607Z,24.25
2022-12-05T03:31:32.403Z,25.98
2022-12-05T03:34:00.592Z,21.65
2022-12-05T03:36:41.576Z,25.75
2022-12-05T03:39:23.629Z,24.50
2022-12-05T03:42:09.631Z,18.58
2022-12-05T03:44:51.411Z,21.88
2022-12-05T03:47:36.404Z,19.08
2022-12-05T03:50:30.060Z,24.23
2022-12-05T03:53:19.711Z,20.60
2022-12-05T03:55:54.867Z,22.95
2022-12-05T03:58:38.587Z,19.77
2022-12-05T04:01:08.293Z,20.98
2022-12-05T04:03:47.439Z,23.00
2022-12-05T04:06:30.807Z,21.10
2022-12-05T04:09:02.755Z,17.23
2022-12-05T04:11:35.633Z,15.05
2022-12-05T04:14:13.773Z,21.10
2022-12-05T04:17:03.352Z,23.17
2022-12-05T04:19:55.011Z,24.70
2022-12-05T04:22:24.995Z,29.20
2022-12-05T04:25:13.310Z,22.95
2022-12-05T04:27:46.281Z,24.40
2022-12-05T04:30:23.549Z,29.65
2022-12-05T04:33:12.245Z,28.88
2022-12-05T04:35:48.503Z,27.55
2022-12-05T04:38:21.721Z,25.48
2022-12-05T04:41:06.384Z,24.02
2022-12-05T04:43:39.448Z,30.83
2022-12-05T04:46:11.959Z,18.25
2022-12-05T04:48:42.571Z,23.17
2022-12-05T04:51:16.282Z,23.15
2022-12-05T04:53:45.143Z,23.83
2022-12-05T04:56:16.745Z,18.80
2022-12-05T04:58:44.109Z,26.42
2022-12-05T05:01:22.405Z,22.05
2022-12-05T05:04:17.162Z,21.90
2022-12-05T05:06:44.345Z,19.83
2022-12-05T05:09:11.916Z,25.40
2022-12-05T05:11:39.136Z,21.27
2022-12-05T05:14:06.663Z,19.80
2022-12-05T05:16:37.465Z,19.75
2022-12-05T05:19:06.371Z,20.98
2022-12-05T05:21:41.670Z,20.83
2022-12-05T05:24:11.063Z,19.33
2022-12-05T05:26:44.002Z,19.77
2022-12-05T05:29:11.809Z,25.67
2022-12-05T05:31:40.472Z,16.15
2022-12-05T05:34:09.823Z,19.30
2022-12-05T05:36:38.179Z,15.88
2022-12-05T05:39:09.758Z,18.52
2022-12-05T05:41:36.998Z,20.35
2022-12-05T05:44:04.840Z,19.52
2022-12-05T05:46:34.449Z,26.98
2022-12-05T05:49:01.708Z,21.73
2022-12-05T05:51:30.352Z,18.00
2022-12-05T05:53:58.755Z,24.67
2022-12-05T05:56:26.259Z,16.52
2022-12-05T05:59:02.309Z,17.88
2022-12-05T06:01:30.404Z,19.15
2022-12-05T06:03:58.421Z,17.38
2022-12-05T06:06:26.492Z,22.05
2022-12-05T06:08:54.896Z,19.98
2022-12-05T06:11:26.734Z,18.27
2022-12-05T06:14:01.285Z,13.88
2022-12-05T06:16:30.599Z,20.33
2022-12-05T06:18:58.644Z,19.27
2022-12-05T06:21:26.248Z,20.55
2022-12-05T06:23:53.975Z,23.90
2022-12-05T06:26:21.866Z,15.40
2022-12-05T06:28:49.190Z,18.67
2022-12-05T06:31:19.934Z,14.85
2022-12-05T06:33:47.781Z,17.85
2022-12-05T06:36:18.756Z,17.40
2022-12-05T06:38:46.334Z,11.55
2022-12-05T06:41:19.067Z,20.00
2022-12-05T06:43:47.051Z,15.00
2022-12-05T06:46:16.054Z,19.95
2022-12-05T06:48:43.897Z,20.80
2022-12-05T06:51:13.536Z,27.55
2022-12-05T06:53:41.644Z,15.85
2022-12-05T06:56:16.423Z,17.05
2022-12-05T06:58:45.999Z,21.20
2022-12-05T07:01:34.102Z,17.27
2022-12-05T07:04:01.874Z,18.73
2022-12-05T07:06:29.415Z,17.10
2022-12-05T07:08:56.761Z,21.75
2022-12-05T07:11:24.225Z,15.25
2022-12-05T07:13:51.717Z,18.35
2022-12-05T07:16:19.052Z,16.98
2022-12-05T07:18:46.490Z,16.55
2022-12-05T07:21:15.657Z,14.40
2022-12-05T07:23:46.024Z,17.30
2022-12-05T07:26:19.016Z,26.13
2022-12-05T07:28:46.803Z,19.58
2022-12-05T07:31:17.802Z,16.80
2022-12-05T07:33:45.414Z,19.00
2022-12-05T07:36:15.309Z,14.82
2022-12-05T07:38:43.333Z,14.75
2022-12-05T07:41:19.404Z,15.60
2022-12-05T07:43:46.681Z,16.10
2022-12-05T07:46:14.124Z,13.63
2022-12-05T07:48:41.454Z,11.48
2022-12-05T07:51:10.854Z,12.27
2022-12-05T07:53:41.602Z,10.18
2022-12-05T07:56:10.879Z,17.67
2022-12-05T07:58:38.260Z,19.88
2022-12-05T08:01:13.696Z,21.65
2022-12-05T08:03:41.405Z,27.55
2022-12-05T08:06:11.157Z,22.10
2022-12-05T08:08:39.032Z,18.75
2022-12-05T08:11:08.212Z,23.80
2022-12-05T08:13:35.423Z,29.67
2022-12-05T08:16:04.978Z,19.23
2022-12-05T08:18:32.584Z,27.80
2022-12-05T08:21:07.953Z,24.05
2022-12-05T08:23:36.293Z,18.58
2022-12-05T08:26:09.886Z,18.02
2022-12-05T08:28:38.147Z,20.60
2022-12-05T08:31:13.737Z,20.20
2022-12-05T08:33:41.575Z,20.55
2022-12-05T08:36:11.907Z,19.23
2022-12-05T08:38:39.550Z,16.85
2022-12-05T08:41:10.416Z,16.42
2022-12-05T08:43:37.633Z,17.88
2022-12-05T08:46:05.567Z,23.10
2022-12-05T08:48:33.928Z,14.93
2022-12-05T08:51:06.214Z,13.43
2022-12-05T08:53:33.617Z,19.80
2022-12-05T08:56:05.192Z,16.50
2022-12-05T08:58:32.815Z,14.10
2022-12-05T09:01:14.743Z,17.30
2022-12-05T09:03:47.544Z,16.75
2022-12-05T09:06:24.017Z,18.20
2022-12-05T09:08:56.791Z,21.60
2022-12-05T09:11:28.929Z,20.48
2022-12-05T09:13:59.219Z,13.60
2022-12-05T09:16:38.794Z,20.45
2022-12-05T09:19:17.597Z,15.02
2022-12-05T09:21:45.076Z,21.77
2022-12-05T09:24:13.689Z,16.95
2022-12-05T09:26:41.811Z,17.92
2022-12-05T09:29:15.765Z,31.95
2022-12-05T09:31:44.958Z,19.80
2022-12-05T09:34:14.234Z,15.77
2022-12-05T09:36:41.667Z,16.25
2022-12-05T09:39:10.153Z,18.90
2022-12-05T09:42:05.059Z,17.70
2022-12-05T09:44:54.129Z,16.45
2022-12-05T09:47:38.802Z,10.85
2022-12-05T09:50:18.042Z,15.75
2022-12-05T09:52:59.274Z,13.52
2022-12-05T09:55:33.664Z,13.38
2022-12-05T09:58:03.312Z,19.63
2022-12-05T10:00:32.490Z,16.42
2022-12-05T10:03:36.905Z,19.60
2022-12-05T10:06:13.601Z,22.33
2022-12-05T10:08:53.681Z,23.65
2022-12-05T10:11:42.164Z,20.45
2022-12-05T10:14:20.581Z,13.10
2022-12-05T10:16:53.963Z,13.65
2022-12-05T10:19:25.986Z,13.45
2022-12-05T10:22:20.247Z,13.32
2022-12-05T10:24:56.482Z,19.00
2022-12-05T10:27:39.987Z,16.40
2022-12-05T10:30:22.810Z,19.20
2022-12-05T10:33:07.900Z,15.07
2022-12-05T10:35:38.903Z,15.38
2022-12-05T10:38:26.330Z,16.05
2022-12-05T10:40:57.742Z,12.13
2022-12-05T10:43:31.276Z,18.70
2022-12-05T10:45:59.633Z,12.32
2022-12-05T10:48:27.976Z,12.23
2022-12-05T10:50:57.708Z,15.38
2022-12-05T10:53:29.872Z,15.73
2022-12-05T10:58:56.667Z,14.43
2022-12-05T11:01:26.191Z,18.35
2022-12-05T11:03:59.879Z,10.30
2022-12-05T11:06:29.949Z,14.15
2022-12-05T11:09:17.036Z,16.48
2022-12-05T11:12:01.920Z,16.48
2022-12-05T11:17:01.332Z,12.63
2022-12-05T11:19:37.173Z,16.10
2022-12-05T11:22:08.022Z,11.05
2022-12-05T11:24:39.615Z,11.93
2022-12-05T11:27:16.046Z,17.83
2022-12-05T11:29:45.568Z,18.05
2022-12-05T11:32:25.476Z,16.73
2022-12-05T11:35:05.852Z,11.95
2022-12-05T11:37:52.763Z,11.85
2022-12-05T11:41:03.984Z,13.68
2022-12-05T11:43:43.383Z,12.23
2022-12-05T11:46:55.318Z,9.90
2022-12-05T11:49:54.212Z,11.98
2022-12-05T11:52:48.052Z,14.27
2022-12-05T11:55:43.692Z,14.02
2022-12-05T11:58:13.589Z,17.05
2022-12-05T12:00:55.646Z,14.98
2022-12-05T12:03:43.991Z,13.38
2022-12-05T12:06:46.705Z,11.68
2022-12-05T12:09:38.724Z,11.93
2022-12-05T12:12:11.664Z,13.07
2022-12-05T12:15:01.879Z,15.25
2022-12-05T12:17:54.600Z,13.80
2022-12-05T12:20:35.158Z,10.80
2022-12-05T12:23:30.319Z,15.75
2022-12-05T12:26:06.410Z,12.60
2022-12-05T12:28:48.833Z,14.75
2022-12-05T12:31:38.735Z,15.75
2022-12-05T12:34:33.275Z,11.77
2022-12-05T12:37:24.169Z,9.43
2022-12-05T12:39:58.974Z,13.05
2022-12-05T12:42:54.123Z,12.55
2022-12-05T12:45:48.064Z,12.35
2022-12-05T12:48:21.417Z,13.40
2022-12-05T12:50:53.041Z,14.60
2022-12-05T12:53:50.901Z,11.15
2022-12-05T12:56:38.796Z,17.63
2022-12-05T12:59:06.029Z,10.70
2022-12-05T13:01:52.779Z,9.95
2022-12-05T13:04:31.978Z,10.35
2022-12-05T13:07:20.508Z,11.07
2022-12-05T13:09:59.003Z,6.93
2022-12-05T13:12:30.806Z,14.60
2022-12-05T13:15:02.855Z,13.95
2022-12-05T13:17:32.038Z,12.55
2022-12-05T13:20:00.384Z,7.70
2022-12-05T13:22:29.332Z,15.60
2022-12-05T13:24:57.100Z,11.07
2022-12-05T13:27:28.521Z,10.77
2022-12-05T13:30:02.501Z,9.63
2022-12-05T13:32:37.051Z,7.93
2022-12-05T13:35:07.287Z,5.83
2022-12-05T13:37:54.243Z,13.70
2022-12-05T13:40:45.943Z,6.82
2022-12-05T13:43:22.801Z,11.27
2022-12-05T13:46:12.109Z,7.95
2022-12-05T13:48:42.991Z,9.30
2022-12-05T13:51:36.096Z,14.02
2022-12-05T13:54:11.516Z,8.82
2022-12-05T13:56:52.367Z,7.65
2022-12-05T13:59:57.531Z,7.78
2022-12-05T14:07:46.203Z,8.75
2022-12-05T14:10:28.769Z,4.38
2022-12-05T14:13:01.918Z,6.10
2022-12-05T14:15:34.060Z,11.13
2022-12-05T14:18:24.038Z,8.38
2022-12-05T14:21:12.318Z,9.90
2022-12-05T14:24:07.716Z,6.72
2022-12-05T14:27:07.608Z,13.07
2022-12-05T14:29:39.999Z,7.22
2022-12-05T14:32:24.516Z,5.25
2022-12-05T14:35:16.052Z,6.95
2022-12-05T14:37:50.878Z,2.60
2022-12-05T14:40:23.953Z,3.53
2022-12-05T14:43:16.886Z,4.82
2022-12-05T14:45:58.171Z,6.55
2022-12-05T14:48:33.366Z,6.88
2022-12-05T14:51:02.659Z,3.63
2022-12-05T14:53:37.689Z,10.05
2022-12-05T14:56:18.638Z,8.88
2022-12-05T14:59:00.050Z,5.57
2022-12-05T15:01:43.348Z,8.23
2022-12-05T15:04:35.169Z,10.80
2022-12-05T15:07:18.638Z,9.82
2022-12-05T15:10:01.278Z,6.82
2022-12-05T15:12:47.809Z,6.45
2022-12-05T15:15:41.718Z,4.40
2022-12-05T15:18:42.557Z,5.40
2022-12-05T15:21:20.051Z,8.80
2022-12-05T15:23:57.932Z,9.43
2022-12-05T15:26:54.750Z,3.47
2022-12-05T15:29:33.134Z,4.25
2022-12-05T15:32:12.131Z,4.05
2022-12-05T15:35:02.540Z,3.05
2022-12-05T15:37:56.380Z,1.35
2022-12-05T15:40:26.097Z,4.38
2022-12-05T15:42:57.715Z,8.38
2022-12-05T15:45:30.633Z,9.00
2022-12-05T15:48:12.347Z,3.47
2022-12-05T15:50:43.284Z,6.13
2022-12-05T15:53:26.602Z,9.88
2022-12-05T15:56:04.692Z,3.70
2022-12-05T15:59:07.979Z,4.47
2022-12-05T16:01:43.457Z,2.03
2022-12-05T16:04:29.219Z,4.78
2022-12-05T16:07:00.638Z,4.97
2022-12-05T16:09:32.233Z,3.03
2022-12-05T16:12:02.707Z,4.80
2022-12-05T16:14:59.055Z,3.95
2022-12-05T16:17:24.646Z,1.83
2022-12-05T16:19:52.108Z,4.28
2022-12-05T16:22:29.132Z,3.15
2022-12-05T16:25:01.368Z,4.03
2022-12-05T16:27:35.463Z,5.95
2022-12-05T16:30:20.135Z,6.63
2022-12-05T16:32:49.868Z,6.40
2022-12-05T16:35:51.504Z,3.08
2022-12-05T16:38:21.078Z,2.97
2022-12-05T16:41:02.790Z,4.50
2022-12-05T16:43:33.201Z,2.50
2022-12-05T16:46:27.700Z,2.80
2022-12-05T16:49:13.654Z,2.83
2022-12-05T16:51:44.298Z,4.22
2022-12-05T16:54:11.600Z,5.35
2022-12-05T16:56:39.775Z,6.25
2022-12-05T16:59:13.736Z,3.65
2022-12-05T17:01:40.987Z,4.13
2022-12-05T17:04:11.670Z,2.92
2022-12-05T17:06:39.480Z,3.78
2022-12-05T17:09:06.672Z,4.78
2022-12-05T17:11:37.261Z,3.70
2022-12-05T17:14:04.770Z,6.93
2022-12-05T17:16:32.205Z,5.18
2022-12-05T17:18:59.480Z,4.72
2022-12-05T17:21:31.515Z,1.75
2022-12-05T17:23:58.711Z,4.28
2022-12-05T17:26:26.648Z,4.68
2022-12-05T17:28:54.009Z,3.30
2022-12-05T17:31:23.906Z,3.50
2022-12-05T17:33:53.275Z,8.32
2022-12-05T17:36:21.311Z,4.72
2022-12-05T17:38:49.361Z,5.18
2022-12-05T17:41:19.717Z,4.90
2022-12-05T17:43:47.525Z,6.40
2022-12-05T17:46:23.364Z,5.95
2022-12-05T17:48:51.845Z,7.63
2022-12-05T17:51:20.414Z,7.30
2022-12-05T17:53:47.923Z,3.05
2022-12-05T17:56:15.690Z,7.57
2022-12-05T17:58:43.206Z,6.53
2022-12-05T18:01:16.265Z,4.40
2022-12-05T18:03:43.776Z,9.63
2022-12-05T18:06:11.602Z,8.38
2022-12-05T18:08:40.047Z,6.28
2022-12-05T18:11:07.621Z,7.15
2022-12-05T18:13:35.061Z,10.68
2022-12-05T18:16:02.655Z,3.63
2022-12-05T18:18:30.413Z,54.83
2022-12-05T18:21:23.731Z,14.23
2022-12-05T18:23:51.924Z,10.45
2022-12-05T18:26:19.169Z,22.83
2022-12-05T18:28:47.117Z,35.35
2022-12-05T18:31:17.331Z,13.80
2022-12-05T18:33:45.343Z,12.23
2022-12-05T18:36:16.156Z,13.85
2022-12-05T18:38:49.301Z,9.88
2022-12-05T18:41:16.508Z,6.82
2022-12-05T18:43:43.628Z,6.88
2022-12-05T18:46:10.890Z,12.75
2022-12-05T18:48:40.013Z,47.03
2022-12-05T18:51:09.871Z,31.50
2022-12-05T18:53:37.118Z,72.03
2022-12-05T18:56:25.910Z,62.08
2022-12-05T18:58:55.249Z,53.85
2022-12-05T19:01:22.568Z,33.20
2022-12-05T19:03:50.531Z,39.35
2022-12-05T19:06:20.093Z,37.38
2022-12-05T19:08:47.498Z,20.60
2022-12-05T19:11:17.856Z,30.50
2022-12-05T19:13:45.209Z,15.05
2022-12-05T19:16:19.571Z,17.20
2022-12-05T19:21:14.619Z,8.45
2022-12-05T19:23:41.816Z,8.27
2022-12-05T19:26:10.572Z,9.30
2022-12-05T19:28:38.721Z,5.85
2022-12-05T19:31:08.873Z,12.32
2022-12-05T19:33:41.953Z,11.18
2022-12-05T19:36:12.211Z,5.97
2022-12-05T19:38:41.482Z,11.02
2022-12-05T19:41:11.095Z,7.28
2022-12-05T19:43:39.446Z,34.90
2022-12-05T19:46:33.816Z,33.58
2022-12-05T19:49:11.992Z,19.98
2022-12-05T19:51:39.374Z,21.67
2022-12-05T19:54:07.921Z,32.75
2022-12-05T19:56:37.240Z,36.70
2022-12-05T19:59:06.362Z,31.42
2022-12-05T20:01:36.529Z,22.30
2022-12-05T20:04:09.782Z,13.52
2022-12-05T20:06:44.919Z,14.52
2022-12-05T20:09:13.837Z,10.50
2022-12-05T20:11:43.891Z,6.40
2022-12-05T20:14:12.694Z,10.77
2022-12-05T20:16:40.781Z,5.22
2022-12-05T20:19:08.792Z,5.55
2022-12-05T20:21:37.284Z,10.40
2022-12-05T20:24:05.355Z,6.18
2022-12-05T20:26:35.655Z,4.43
2022-12-05T20:29:03.945Z,4.10
2022-12-05T20:31:37.326Z,5.80
2022-12-05T20:34:05.697Z,8.02
2022-12-05T20:36:34.769Z,5.00
2022-12-05T20:39:04.662Z,3.13
2022-12-05T20:41:32.178Z,8.57
2022-12-05T20:44:02.008Z,3.50
2022-12-05T20:46:30.379Z,7.60
2022-12-05T20:48:57.727Z,6.53
2022-12-05T20:51:27.439Z,8.45
2022-12-05T20:53:55.053Z,9.63
2022-12-05T20:56:28.312Z,6.70
2022-12-05T20:58:58.025Z,7.07
2022-12-05T21:01:27.094Z,11.50
2022-12-05T21:03:55.206Z,10.57
2022-12-05T21:06:23.539Z,8.05
2022-12-05T21:08:51.951Z,17.63
2022-12-05T21:11:19.323Z,6.80
2022-12-05T21:13:46.692Z,10.18
2022-12-05T21:16:18.367Z,11.40
2022-12-05T21:18:46.038Z,8.02
2022-12-05T21:21:17.065Z,16.23
2022-12-05T21:23:45.883Z,14.40
2022-12-05T21:26:15.725Z,22.20
2022-12-05T21:28:44.558Z,18.83
2022-12-05T21:31:17.993Z,19.50
2022-12-05T21:33:53.770Z,21.55
2022-12-05T21:36:22.219Z,39.17
2022-12-05T21:38:54.161Z,42.38
2022-12-05T21:41:24.490Z,17.20
2022-12-05T21:43:54.958Z,12.88
2022-12-05T21:46:24.221Z,15.30
2022-12-05T21:48:51.550Z,11.38
2022-12-05T21:51:18.988Z,14.35
2022-12-05T21:53:46.309Z,6.05
2022-12-05T21:56:16.073Z,10.20
2022-12-05T21:58:45.085Z,8.95
2022-12-05T22:01:20.118Z,12.40
2022-12-05T22:03:47.739Z,6.85
2022-12-05T22:06:15.524Z,8.32
2022-12-05T22:08:43.985Z,7.93
2022-12-05T22:11:14.051Z,9.70
2022-12-05T22:13:42.224Z,7.55
2022-12-05T22:16:09.635Z,6.28
2022-12-05T22:18:37.527Z,13.60
2022-12-05T22:21:19.856Z,13.10
2022-12-05T22:23:48.305Z,7.80
2022-12-05T22:26:18.527Z,6.03
2022-12-05T22:28:46.418Z,4.85
2022-12-05T22:31:15.893Z,11.23
2022-12-05T22:33:44.197Z,11.25
2022-12-05T22:36:14.256Z,6.05
2022-12-05T22:38:43.601Z,7.05
2022-12-05T22:41:16.718Z,4.80
2022-12-05T22:43:45.927Z,6.82
2022-12-05T22:46:18.968Z,5.68
2022-12-05T22:48:47.801Z,9.32
2022-12-05T22:51:17.086Z,8.32
2022-12-05T22:53:44.846Z,9.15
2022-12-05T22:56:17.653Z,6.05
2022-12-05T22:58:46.864Z,3.30
2022-12-05T23:01:17.043Z,8.57
2022-12-05T23:03:46.285Z,3.88
2022-12-05T23:06:15.441Z,4.72
2022-12-05T23:08:44.679Z,4.57
2022-12-05T23:11:12.213Z,2.47
2022-12-05T23:13:39.957Z,6.10
2022-12-05T23:16:08.521Z,6.32
2022-12-05T23:18:48.756Z,7.65
2022-12-05T23:21:21.787Z,11.18
2022-12-05T23:23:50.625Z,4.60
2022-12-05T23:26:19.936Z,6.72
2022-12-05T23:28:47.543Z,4.82
2022-12-05T23:31:15.355Z,7.32
2022-12-05T23:33:43.377Z,2.40
2022-12-05T23:36:10.856Z,6.40
2022-12-05T23:38:40.343Z,6.70
2022-12-05T23:41:11.554Z,6.78
2022-12-05T23:43:39.324Z,5.25
2022-12-05T23:46:09.427Z,4.53
2022-12-05T23:48:36.950Z,6.80
2022-12-05T23:51:10.535Z,11.13
2022-12-05T23:53:40.291Z,5.95
2022-12-05T23:56:12.394Z,3.33
2022-12-05T23:58:40.514Z,5.57
